Time;durP1;ratioP1;P1;durP2;ratioP2;P2;SDS_P1;SDS_P2;PMS_P1;PMS_P2;Temp;Humidity;BMP_temperature;BMP_pressure;BME280_temperature;BME280_humidity;BME280_pressure;Samples;Min_cycle;Max_cycle;Signal;HPM_P1;HPM_P2
2023/11/27 00:01:13;;;;;;;1.40;1.07;;;;;;;3.37;100.00;98895.69;5079008;28;20206;-79
2023/11/27 00:03:40;;;;;;;1.23;1.13;;;;;;;3.42;100.00;98898.59;5057308;28;20221;-80
2023/11/27 00:06:08;;;;;;;1.10;1.00;;;;;;;3.34;100.00;98890.81;5076502;28;20198;-78
2023/11/27 00:08:35;;;;;;;1.87;1.00;;;;;;;3.43;100.00;98892.28;5078519;28;20192;-79
2023/11/27 00:11:06;;;;;;;1.20;1.10;;;;;;;3.32;100.00;98891.97;5094704;28;20196;-79
2023/11/27 00:13:33;;;;;;;2.30;1.17;;;;;;;3.33;100.00;98897.09;5101243;28;20277;-78
2023/11/27 00:16:00;;;;;;;1.97;1.07;;;;;;;3.31;100.00;98898.31;5084304;28;20187;-82
2023/11/27 00:18:31;;;;;;;1.80;1.20;;;;;;;3.36;100.00;98899.34;5103759;28;20229;-79
2023/11/27 00:20:59;;;;;;;1.90;1.10;;;;;;;3.24;100.00;98903.53;5108901;28;20238;-78
2023/11/27 00:23:29;;;;;;;1.93;1.27;;;;;;;3.16;100.00;98900.22;5095099;28;20245;-78
2023/11/27 00:25:57;;;;;;;1.63;1.20;;;;;;;3.03;100.00;98893.75;5064874;28;20192;-80
2023/11/27 00:28:23;;;;;;;1.87;1.40;;;;;;;3.06;100.00;98892.59;5076867;28;20254;-80
2023/11/27 00:30:51;;;;;;;2.27;1.20;;;;;;;2.97;100.00;98891.06;5109039;28;20207;-82
2023/11/27 00:33:38;;;;;;;1.57;1.30;;;;;;;2.97;100.00;98891.06;5097349;28;20777;-80
2023/11/27 00:36:05;;;;;;;1.77;1.20;;;;;;;2.97;100.00;98885.78;5097756;28;20259;-81
2023/11/27 00:38:32;;;;;;;2.37;1.10;;;;;;;2.94;100.00;98871.09;5099490;28;20187;-79
2023/11/27 00:40:59;;;;;;;1.93;1.00;;;;;;;2.91;100.00;98884.69;5111288;28;20274;-81
2023/11/27 00:43:29;;;;;;;1.30;1.20;;;;;;;3.00;100.00;98885.38;5094577;28;20200;-79
2023/11/27 00:45:57;;;;;;;2.60;1.17;;;;;;;3.09;100.00;98885.06;5109284;28;20202;-80
2023/11/27 00:48:23;;;;;;;2.23;1.40;;;;;;;3.09;100.00;98877.13;5109931;28;20259;-81
2023/11/27 00:50:52;;;;;;;2.57;1.20;;;;;;;3.05;100.00;98870.59;5100278;28;20204;-83
2023/11/27 00:53:23;;;;;;;2.80;1.03;;;;;;;3.01;100.00;98864.03;5096110;28;20265;-80
2023/11/27 00:55:50;;;;;;;2.10;1.37;;;;;;;3.00;100.00;98874.81;5085669;28;20247;-81
2023/11/27 00:58:20;;;;;;;1.70;1.37;;;;;;;3.03;100.00;98877.88;5096951;28;20293;-80
2023/11/27 01:00:48;;;;;;;3.00;1.27;;;;;;;3.02;100.00;98875.44;5096527;28;20203;-80
2023/11/27 01:03:16;;;;;;;1.70;1.13;;;;;;;3.08;100.00;98877.31;5092190;28;20700;-79
2023/11/27 01:05:43;;;;;;;1.83;1.00;;;;;;;3.17;100.00;98880.69;5093647;28;20188;-80
2023/11/27 01:08:13;;;;;;;1.83;1.00;;;;;;;3.20;100.00;98869.69;5101998;28;20192;-79
2023/11/27 01:10:46;;;;;;;1.20;1.10;;;;;;;3.26;100.00;98861.81;5103373;28;20199;-79
2023/11/27 01:13:14;;;;;;;2.40;1.20;;;;;;;3.23;100.00;98862.19;5098636;28;20211;-78
2023/11/27 01:15:43;;;;;;;1.73;1.10;;;;;;;3.20;100.00;98859.09;5099102;28;20196;-81
2023/11/27 01:18:12;;;;;;;1.40;1.30;;;;;;;3.26;100.00;98861.00;5103882;28;20195;-79
2023/11/27 01:20:39;;;;;;;1.20;1.10;;;;;;;3.25;100.00;98862.81;5072054;28;20232;-79
2023/11/27 01:23:23;;;;;;;1.83;1.30;;;;;;;3.28;100.00;98857.13;5096540;28;20195;-81
2023/11/27 01:25:51;;;;;;;1.33;1.10;;;;;;;3.33;100.00;98862.69;5090337;28;20252;-80
2023/11/27 01:28:18;;;;;;;2.43;1.30;;;;;;;3.40;100.00;98860.91;5105912;28;20191;-80
2023/11/27 01:30:47;;;;;;;1.30;1.20;;;;;;;3.43;100.00;98862.34;5106742;28;20191;-80
2023/11/27 01:33:16;;;;;;;1.93;0.90;;;;;;;3.50;100.00;98865.84;5098033;28;20743;-79
2023/11/27 01:35:44;;;;;;;1.43;1.10;;;;;;;3.49;100.00;98858.94;5104188;28;20732;-80
2023/11/27 01:38:11;;;;;;;2.23;1.10;;;;;;;3.50;100.00;98847.31;5104123;28;20252;-80
2023/11/27 01:40:37;;;;;;;1.20;1.10;;;;;;;3.52;100.00;98853.25;5093249;28;20184;-79
2023/11/27 01:43:14;;;;;;;1.40;1.20;;;;;;;3.51;100.00;98847.13;5092141;28;20195;-79
2023/11/27 01:45:42;;;;;;;1.23;1.10;;;;;;;3.71;100.00;98849.91;5092277;28;20204;-78
2023/11/27 01:48:13;;;;;;;1.37;1.20;;;;;;;3.68;100.00;98852.97;5100399;28;20194;-80
2023/11/27 01:50:42;;;;;;;1.30;1.20;;;;;;;3.70;100.00;98858.03;5098240;28;20192;-80
2023/11/27 01:53:13;;;;;;;1.73;1.10;;;;;;;3.70;100.00;98842.16;5078820;28;20195;-80
2023/11/27 01:55:40;;;;;;;1.10;1.00;;;;;;;3.73;100.00;98839.13;5086460;28;20531;-80
2023/11/27 01:58:12;;;;;;;1.33;1.20;;;;;;;3.70;100.00;98831.56;5075641;28;20204;-80
2023/11/27 02:00:39;;;;;;;1.40;1.13;;;;;;;3.66;100.00;98822.34;5061123;28;20200;-81
2023/11/27 02:03:09;;;;;;;2.07;1.10;;;;;;;3.60;100.00;98828.44;5102835;28;20216;-80
2023/11/27 02:05:36;;;;;;;1.53;1.00;;;;;;;3.68;100.00;98826.47;5097432;28;20218;-79
2023/11/27 02:08:02;;;;;;;1.33;1.10;;;;;;;3.69;100.00;98827.25;5082107;28;20193;-80
2023/11/27 02:10:30;;;;;;;1.00;0.90;;;;;;;3.82;100.00;98820.22;5079442;28;20254;-79
2023/11/27 02:13:01;;;;;;;1.80;1.33;;;;;;;3.70;100.00;98828.91;5068965;28;20230;-79
2023/11/27 02:15:33;;;;;;;1.00;0.90;;;;;;;3.60;100.00;98833.72;5113288;28;20248;-79
2023/11/27 02:18:03;;;;;;;1.77;1.10;;;;;;;3.59;100.00;98825.00;5107474;28;20190;-80
2023/11/27 02:20:47;;;;;;;1.50;1.10;;;;;;;3.70;100.00;98820.94;5089064;28;20213;-84
2023/11/27 02:23:15;;;;;;;1.13;1.00;;;;;;;3.59;100.00;98814.41;5110441;28;20762;-80
2023/11/27 02:25:48;;;;;;;1.33;1.10;;;;;;;3.72;100.00;98809.16;5088432;28;20711;-79
2023/11/27 02:28:17;;;;;;;1.97;1.20;;;;;;;3.68;100.00;98807.94;5100722;28;20192;-78
2023/11/27 02:30:44;;;;;;;1.40;1.30;;;;;;;3.76;100.00;98804.28;5074613;28;20210;-79
2023/11/27 02:33:13;;;;;;;1.30;1.20;;;;;;;3.65;100.00;98800.34;5093018;28;20206;-79
2023/11/27 02:35:40;;;;;;;1.53;1.30;;;;;;;3.70;100.00;98805.88;5083312;28;20237;-79
2023/11/27 02:38:09;;;;;;;2.53;1.50;;;;;;;3.60;100.00;98799.28;5071245;28;20201;-79
2023/11/27 02:40:36;;;;;;;2.87;1.30;;;;;;;3.60;100.00;98800.09;5102912;28;20194;-80
2023/11/27 02:43:03;;;;;;;1.83;1.33;;;;;;;3.62;100.00;98803.41;5105966;28;20215;-78
2023/11/27 02:45:33;;;;;;;1.50;1.17;;;;;;;3.58;100.00;98799.50;5091533;28;20196;-80
2023/11/27 02:48:00;;;;;;;1.67;1.27;;;;;;;3.56;100.00;98801.53;5091577;28;20192;-81
2023/11/27 02:50:27;;;;;;;1.57;1.30;;;;;;;3.45;100.00;98796.78;5094467;28;20228;-79
2023/11/27 02:52:54;;;;;;;1.53;1.30;;;;;;;3.50;100.00;98791.69;5079438;28;20210;-79
2023/11/27 02:55:22;;;;;;;1.43;1.27;;;;;;;3.55;100.00;98803.34;5109816;28;20211;-81
2023/11/27 02:57:52;;;;;;;1.33;1.23;;;;;;;3.58;100.00;98785.44;5092847;28;20287;-81
2023/11/27 03:00:21;;;;;;;1.53;1.37;;;;;;;3.64;100.00;98787.31;5071803;28;20733;-80
2023/11/27 03:02:48;;;;;;;1.43;1.20;;;;;;;3.58;100.00;98788.91;5091781;28;20191;-79
2023/11/27 03:05:16;;;;;;;1.30;1.20;;;;;;;3.63;100.00;98789.16;5093288;28;20177;-80
2023/11/27 03:07:43;;;;;;;2.10;1.33;;;;;;;3.58;100.00;98793.38;5092999;28;20184;-80
2023/11/27 03:10:12;;;;;;;1.43;1.33;;;;;;;3.51;100.00;98788.84;5059132;28;20204;-79
2023/11/27 03:12:40;;;;;;;2.47;1.30;;;;;;;3.55;100.00;98779.50;5091786;28;20180;-80
2023/11/27 03:15:07;;;;;;;2.13;1.57;;;;;;;3.62;100.00;98789.34;5074806;28;20684;-80
2023/11/27 03:17:34;;;;;;;1.40;1.30;;;;;;;3.65;100.00;98779.16;5092990;28;20188;-81
2023/11/27 03:20:12;;;;;;;1.50;1.20;;;;;;;3.62;100.00;98779.56;5096642;28;20191;-80
2023/11/27 03:22:40;;;;;;;1.40;1.10;;;;;;;3.59;100.00;98785.25;5095203;28;20208;-79
2023/11/27 03:25:07;;;;;;;1.77;1.30;;;;;;;3.61;100.00;98791.16;5095158;28;20185;-80
2023/11/27 03:27:35;;;;;;;1.30;1.20;;;;;;;3.64;100.00;98780.16;5062632;28;20287;-80
2023/11/27 03:30:06;;;;;;;1.50;1.40;;;;;;;3.64;100.00;98784.66;5095017;28;20306;-78
2023/11/27 03:32:32;;;;;;;1.30;1.20;;;;;;;3.63;100.00;98783.84;5095417;28;20176;-81
2023/11/27 03:35:01;;;;;;;1.30;1.20;;;;;;;3.76;100.00;98772.50;5078416;28;20753;-79
2023/11/27 03:37:30;;;;;;;1.47;1.13;;;;;;;3.81;100.00;98781.50;5095129;28;20200;-81
2023/11/27 03:39:59;;;;;;;1.20;1.10;;;;;;;3.76;100.00;98786.56;5095260;28;20222;-80
2023/11/27 03:42:35;;;;;;;1.77;1.20;;;;;;;3.80;100.00;98776.38;5095312;28;20180;-79
2023/11/27 03:45:02;;;;;;;1.50;1.27;;;;;;;3.75;100.00;98770.84;5094969;28;20588;-81
2023/11/27 03:47:29;;;;;;;1.10;1.00;;;;;;;3.76;100.00;98775.16;5078364;28;20668;-81
2023/11/27 03:49:57;;;;;;;1.40;1.30;;;;;;;3.79;100.00;98766.78;5095314;28;20311;-80
2023/11/27 03:52:26;;;;;;;1.60;1.40;;;;;;;3.87;100.00;98764.00;5078627;28;20188;-79
2023/11/27 03:54:53;;;;;;;1.57;1.27;;;;;;;3.83;100.00;98771.50;5095369;28;20212;-79
2023/11/27 03:57:25;;;;;;;1.53;1.23;;;;;;;3.82;100.00;98769.06;5077713;28;20660;-78
2023/11/27 03:59:54;;;;;;;2.20;1.27;;;;;;;3.73;100.00;98768.41;5095251;28;20173;-80
2023/11/27 04:02:23;;;;;;;1.90;1.33;;;;;;;3.72;100.00;98771.25;5078156;28;20192;-81
2023/11/27 04:04:53;;;;;;;1.20;1.03;;;;;;;3.77;100.00;98758.25;5111841;28;20187;-79
2023/11/27 04:07:20;;;;;;;1.30;1.17;;;;;;;3.81;100.00;98762.13;5097598;28;20192;-80
2023/11/27 04:09:50;;;;;;;1.93;1.20;;;;;;;3.75;100.00;98763.72;5083572;28;20200;-79
2023/11/27 04:12:16;;;;;;;1.83;1.13;;;;;;;3.80;100.00;98756.00;5103761;28;20208;-78
2023/11/27 04:14:43;;;;;;;1.43;0.97;;;;;;;3.79;100.00;98767.59;5074578;28;20204;-80
2023/11/27 04:17:13;;;;;;;1.30;1.20;;;;;;;3.81;100.00;98765.59;5097572;28;20185;-80
2023/11/27 04:19:42;;;;;;;1.10;1.00;;;;;;;3.74;100.00;98761.25;5088889;28;20202;-81
2023/11/27 04:22:10;;;;;;;0.90;0.90;;;;;;;3.79;100.00;98766.78;5080389;28;20196;-78
2023/11/27 04:24:37;;;;;;;0.90;0.80;;;;;;;3.85;100.00;98771.31;5099720;28;20196;-80
2023/11/27 04:27:06;;;;;;;2.13;1.10;;;;;;;3.79;100.00;98766.78;5077115;28;20196;-82
2023/11/27 04:29:39;;;;;;;1.80;1.00;;;;;;;3.79;100.00;98772.09;5085206;28;20206;-81
2023/11/27 04:32:09;;;;;;;0.83;0.80;;;;;;;3.87;100.00;98771.94;5094648;28;20249;-81
2023/11/27 04:34:39;;;;;;;0.60;0.60;;;;;;;3.84;100.00;98778.44;5093648;28;20246;-80
2023/11/27 04:37:07;;;;;;;1.20;0.73;;;;;;;3.89;100.00;98773.38;5076515;28;20188;-80
2023/11/27 04:39:36;;;;;;;1.03;0.70;;;;;;;3.83;100.00;98776.78;5095165;28;20192;-81
2023/11/27 04:42:10;;;;;;;2.10;0.70;;;;;;;3.84;100.00;98781.09;5094063;28;20239;-80
2023/11/27 04:44:39;;;;;;;0.80;0.80;;;;;;;3.95;100.00;98780.53;5094607;28;20223;-79
2023/11/27 04:47:13;;;;;;;0.93;0.73;;;;;;;3.83;100.00;98779.44;5058916;28;20684;-79
2023/11/27 04:49:40;;;;;;;1.63;0.73;;;;;;;3.79;100.00;98775.56;5079226;28;20328;-80
2023/11/27 04:52:07;;;;;;;0.83;0.60;;;;;;;3.79;100.00;98767.59;5113363;28;20191;-80
2023/11/27 04:54:38;;;;;;;0.90;0.70;;;;;;;3.77;100.00;98771.50;5100744;28;20212;-79
2023/11/27 04:57:08;;;;;;;0.70;0.60;;;;;;;3.86;100.00;98767.66;5110773;28;20195;-80
2023/11/27 04:59:35;;;;;;;1.00;0.90;;;;;;;3.94;100.00;98772.78;5097597;28;20202;-80
2023/11/27 05:02:02;;;;;;;0.60;0.50;;;;;;;3.96;100.00;98774.22;5083039;28;20266;-80
2023/11/27 05:04:34;;;;;;;0.50;0.50;;;;;;;4.01;100.00;98770.97;5104818;28;20213;-79
2023/11/27 05:07:09;;;;;;;1.07;0.50;;;;;;;3.94;100.00;98765.66;5087471;28;20187;-79
2023/11/27 05:09:40;;;;;;;0.40;0.40;;;;;;;3.96;100.00;98774.22;5102071;28;20287;-78
2023/11/27 05:12:07;;;;;;;0.50;0.50;;;;;;;3.97;100.00;98780.31;5087159;28;20251;-78
2023/11/27 05:14:38;;;;;;;0.73;0.50;;;;;;;3.90;100.00;98782.13;5072203;28;20211;-79
2023/11/27 05:17:05;;;;;;;1.80;0.50;;;;;;;3.87;100.00;98780.69;5107755;28;20184;-80
2023/11/27 05:19:35;;;;;;;1.43;0.60;;;;;;;3.86;100.00;98779.06;5092785;28;20206;-80
2023/11/27 05:22:03;;;;;;;0.40;0.40;;;;;;;3.79;100.00;98780.03;5093824;28;20192;-80
2023/11/27 05:24:33;;;;;;;0.60;0.60;;;;;;;3.71;100.00;98783.69;5077385;28;20282;-80
2023/11/27 05:27:01;;;;;;;0.60;0.43;;;;;;;3.61;100.00;98775.28;5112473;28;20580;-80
2023/11/27 05:29:31;;;;;;;0.80;0.60;;;;;;;3.57;100.00;98771.38;5095367;28;20203;-79
2023/11/27 05:31:58;;;;;;;0.67;0.60;;;;;;;3.60;100.00;98775.44;5092617;28;20192;-80
2023/11/27 05:34:26;;;;;;;2.17;0.60;;;;;;;3.58;100.00;98788.09;5092446;28;20230;-79
2023/11/27 05:36:55;;;;;;;0.50;0.50;;;;;;;3.59;100.00;98774.66;5106873;28;20187;-81
2023/11/27 05:39:24;;;;;;;0.60;0.60;;;;;;;3.47;100.00;98769.06;5089380;28;20191;-79
2023/11/27 05:41:52;;;;;;;0.70;0.60;;;;;;;3.46;100.00;98769.25;5075079;28;20195;-80
2023/11/27 05:44:19;;;;;;;0.70;0.70;;;;;;;3.44;100.00;98777.44;5100205;28;20188;-80
2023/11/27 05:46:46;;;;;;;0.60;0.60;;;;;;;3.40;100.00;98773.53;5078129;28;20192;-79
2023/11/27 05:49:15;;;;;;;0.60;0.60;;;;;;;3.45;100.00;98770.31;5112205;28;20231;-80
2023/11/27 05:51:42;;;;;;;0.50;0.50;;;;;;;3.37;100.00;98775.72;5095208;28;20195;-79
2023/11/27 05:54:09;;;;;;;0.70;0.50;;;;;;;3.31;100.00;98777.31;5098088;28;20192;-79
2023/11/27 05:56:36;;;;;;;0.60;0.60;;;;;;;3.25;100.00;98770.16;5093934;28;20195;-81
2023/11/27 05:59:07;;;;;;;0.50;0.50;;;;;;;3.24;100.00;98780.94;5099419;28;20202;-81
2023/11/27 06:01:36;;;;;;;0.87;0.70;;;;;;;3.16;100.00;98779.28;5113227;28;20275;-81
2023/11/27 06:04:03;;;;;;;0.50;0.50;;;;;;;3.13;100.00;98776.19;5105573;28;20283;-79
2023/11/27 06:06:30;;;;;;;0.70;0.50;;;;;;;3.05;100.00;98772.66;5101515;28;20187;-79
2023/11/27 06:08:58;;;;;;;0.60;0.60;;;;;;;3.00;100.00;98775.06;5112340;28;20176;-80
2023/11/27 06:11:25;;;;;;;1.93;0.70;;;;;;;2.96;100.00;98773.00;5095105;28;20299;-81
2023/11/27 06:13:52;;;;;;;0.67;0.57;;;;;;;2.91;100.00;98773.56;5070937;28;20187;-80
2023/11/27 06:16:25;;;;;;;0.53;0.53;;;;;;;2.91;100.00;98772.75;5073961;28;20315;-79
2023/11/27 06:18:57;;;;;;;0.73;0.57;;;;;;;2.86;100.00;98773.31;5083097;28;20196;-78
2023/11/27 06:21:24;;;;;;;0.50;0.50;;;;;;;2.88;100.00;98770.50;5101608;28;20204;-80
2023/11/27 06:23:51;;;;;;;0.50;0.50;;;;;;;2.89;100.00;98769.50;5068792;28;21418;-79
2023/11/27 06:26:21;;;;;;;0.57;0.50;;;;;;;2.84;100.00;98763.97;5097345;28;20196;-81
2023/11/27 06:28:48;;;;;;;0.80;0.60;;;;;;;2.82;100.00;98760.69;5077704;28;20183;-81
2023/11/27 06:31:16;;;;;;;1.40;0.67;;;;;;;2.84;100.00;98759.50;5087940;28;20203;-80
2023/11/27 06:33:46;;;;;;;0.70;0.50;;;;;;;2.89;100.00;98761.56;5059856;28;20199;-79
2023/11/27 06:36:13;;;;;;;0.50;0.50;;;;;;;2.87;100.00;98764.38;5104719;28;20213;-79
2023/11/27 06:38:45;;;;;;;1.03;0.60;;;;;;;2.90;100.00;98755.22;5092391;28;20236;-78
2023/11/27 06:41:11;;;;;;;0.67;0.50;;;;;;;2.94;100.00;98767.09;5108202;28;20195;-79
2023/11/27 06:43:41;;;;;;;0.70;0.40;;;;;;;2.95;100.00;98772.19;5092587;28;20237;-80
2023/11/27 06:46:14;;;;;;;1.43;0.50;;;;;;;3.02;100.00;98767.78;5090048;28;20188;-81
2023/11/27 06:48:41;;;;;;;0.90;0.60;;;;;;;2.99;100.00;98765.50;5098147;28;20231;-81
2023/11/27 06:51:09;;;;;;;1.03;0.60;;;;;;;3.01;100.00;98762.66;5095220;28;20241;-80
2023/11/27 06:53:37;;;;;;;0.53;0.53;;;;;;;3.03;100.00;98773.88;5064673;28;20188;-81
2023/11/27 06:56:07;;;;;;;0.73;0.50;;;;;;;3.05;100.00;98770.03;5095216;28;20200;-81
2023/11/27 06:58:35;;;;;;;0.53;0.50;;;;;;;3.06;100.00;98773.50;5096654;28;20200;-82
2023/11/27 07:01:04;;;;;;;5.00;2.13;;;;;;;3.10;100.00;98774.75;5095200;28;20184;-81
2023/11/27 07:03:31;;;;;;;4.67;3.23;;;;;;;3.13;100.00;98771.69;5102904;28;20219;-82
2023/11/27 07:05:58;;;;;;;2.57;2.20;;;;;;;3.12;100.00;98769.25;5102385;28;20204;-82
2023/11/27 07:08:25;;;;;;;1.20;1.03;;;;;;;3.15;100.00;98769.69;5096155;28;20222;-81
2023/11/27 07:10:55;;;;;;;1.47;0.80;;;;;;;3.13;100.00;98762.97;5103503;28;20224;-78
2023/11/27 07:13:30;;;;;;;0.93;0.60;;;;;;;3.14;100.00;98760.09;5096254;28;20215;-81
2023/11/27 07:16:00;;;;;;;0.70;0.70;;;;;;;3.16;100.00;98760.75;5078547;28;20360;-79
2023/11/27 07:18:29;;;;;;;0.63;0.60;;;;;;;3.21;100.00;98749.56;5104956;28;20183;-78
2023/11/27 07:21:02;;;;;;;1.53;0.60;;;;;;;3.26;100.00;98753.28;5089452;28;20237;-80
2023/11/27 07:23:29;;;;;;;0.80;0.80;;;;;;;3.33;100.00;98746.19;5094797;28;20200;-79
2023/11/27 07:25:56;;;;;;;2.23;0.90;;;;;;;3.35;100.00;98733.59;5095922;28;20216;-80
2023/11/27 07:28:27;;;;;;;0.40;0.40;;;;;;;3.40;100.00;98747.06;5101839;28;20196;-79
2023/11/27 07:30:56;;;;;;;0.83;0.60;;;;;;;3.46;100.00;98742.78;5095902;28;20687;-80
2023/11/27 07:33:26;;;;;;;0.43;0.40;;;;;;;3.50;100.00;98744.03;5093433;28;20203;-78
2023/11/27 07:36:02;;;;;;;0.50;0.50;;;;;;;3.62;100.00;98749.59;5094583;28;20196;-80
2023/11/27 07:38:29;;;;;;;0.50;0.50;;;;;;;3.71;100.00;98743.94;5091343;28;20195;-78
2023/11/27 07:40:59;;;;;;;0.47;0.40;;;;;;;3.77;100.00;98743.16;5097270;28;20576;-78
2023/11/27 07:43:29;;;;;;;1.03;0.40;;;;;;;3.80;100.00;98742.75;5098199;28;20189;-80
2023/11/27 07:45:56;;;;;;;0.40;0.33;;;;;;;3.84;100.00;98746.63;5108223;28;20195;-82
2023/11/27 07:48:26;;;;;;;0.80;0.40;;;;;;;3.94;100.00;98757.69;5105920;28;20191;-79
2023/11/27 07:50:56;;;;;;;0.30;0.30;;;;;;;4.01;100.00;98754.25;5101942;28;20188;-81
2023/11/27 07:53:24;;;;;;;0.60;0.30;;;;;;;4.10;100.00;98756.53;5095432;28;20176;-80
2023/11/27 07:55:56;;;;;;;0.77;0.30;;;;;;;4.15;100.00;98754.09;5095189;28;20245;-80
2023/11/27 07:58:24;;;;;;;0.30;0.30;;;;;;;4.23;100.00;98755.75;5094903;28;20211;-79
2023/11/27 08:00:51;;;;;;;0.63;0.50;;;;;;;4.30;100.00;98757.38;5098059;28;20286;-79
2023/11/27 08:03:21;;;;;;;0.93;0.53;;;;;;;4.40;100.00;98754.34;5096156;28;20228;-79
2023/11/27 08:05:51;;;;;;;0.70;0.40;;;;;;;4.54;100.00;98752.53;5096329;28;20192;-79
2023/11/27 08:08:21;;;;;;;1.27;0.50;;;;;;;4.66;100.00;98749.09;5098513;28;20187;-80
2023/11/27 08:10:53;;;;;;;1.47;0.70;;;;;;;4.72;100.00;98753.56;5110501;28;20252;-80
2023/11/27 08:13:22;;;;;;;1.20;1.10;;;;;;;4.74;100.00;98746.25;5096681;28;20245;-79
2023/11/27 08:15:50;;;;;;;1.23;1.10;;;;;;;4.73;100.00;98751.75;5109188;28;20227;-80
2023/11/27 08:18:17;;;;;;;24.10;21.70;;;;;;;4.68;100.00;98741.75;5096791;28;20185;-80
2023/11/27 08:20:49;;;;;;;6.80;6.10;;;;;;;4.63;100.00;98740.72;5093636;28;20717;-79
2023/11/27 08:23:17;;;;;;;3.47;2.70;;;;;;;4.67;100.00;98731.31;5059294;28;20246;-79
2023/11/27 08:25:44;;;;;;;3.77;3.13;;;;;;;4.69;100.00;98731.94;5083410;28;20188;-80
2023/11/27 08:28:14;;;;;;;4.60;3.37;;;;;;;4.69;100.00;98731.94;5077833;28;20197;-81
2023/11/27 08:30:45;;;;;;;8.13;5.13;;;;;;;4.74;100.00;98726.84;5095518;28;20189;-79
2023/11/27 08:33:12;;;;;;;6.40;5.80;;;;;;;4.80;100.00;98739.31;5097350;27;20196;-78
2023/11/27 08:35:44;;;;;;;5.37;4.87;;;;;;;4.85;100.00;98727.03;5091894;28;20723;-79
2023/11/27 08:38:17;;;;;;;4.87;3.20;;;;;;;4.91;100.00;98722.75;5109535;28;20560;-80
2023/11/27 08:40:48;;;;;;;4.97;2.97;;;;;;;4.98;100.00;98728.88;5079767;28;20230;-80
2023/11/27 08:43:19;;;;;;;2.50;1.90;;;;;;;5.09;100.00;98711.50;5096069;28;20215;-82
2023/11/27 08:45:47;;;;;;;2.00;1.00;;;;;;;5.19;100.00;98707.41;5090671;28;20195;-79
2023/11/27 08:48:15;;;;;;;1.10;0.70;;;;;;;5.32;100.00;98717.16;5094635;28;20268;-79
2023/11/27 08:50:47;;;;;;;0.60;0.60;;;;;;;5.45;100.00;98700.41;5095957;28;20216;-79
2023/11/27 08:53:13;;;;;;;0.50;0.50;;;;;;;5.61;100.00;98705.22;5094390;28;20275;-79
2023/11/27 08:55:41;;;;;;;0.40;0.40;;;;;;;5.73;100.00;98708.88;5093924;28;20204;-78
2023/11/27 08:58:11;;;;;;;0.90;0.67;;;;;;;5.88;100.00;98701.47;5088232;28;20200;-81
2023/11/27 09:00:38;;;;;;;1.60;1.10;;;;;;;6.03;100.00;98710.00;5092657;28;20199;-80
2023/11/27 09:03:08;;;;;;;1.10;1.00;;;;;;;6.10;100.00;98707.31;5072419;28;20204;-81
2023/11/27 09:05:42;;;;;;;1.40;1.10;;;;;;;6.16;100.00;98706.44;5097249;28;20184;-80
2023/11/27 09:08:09;;;;;;;1.10;1.00;;;;;;;6.20;100.00;98711.13;5092755;28;20259;-82
2023/11/27 09:10:36;;;;;;;1.10;1.00;;;;;;;6.30;100.00;98709.84;5067563;28;20188;-80
2023/11/27 09:13:07;;;;;;;2.20;1.00;;;;;;;6.41;100.00;98699.31;5095484;28;20664;-80
2023/11/27 09:15:51;;;;;;;1.10;0.90;;;;;;;6.44;100.00;98698.88;5101492;28;20219;-79
2023/11/27 09:18:18;;;;;;;1.40;1.30;;;;;;;6.45;100.00;98703.19;5075540;28;20283;-79
2023/11/27 09:20:45;;;;;;;1.33;1.10;;;;;;;6.52;100.00;98696.00;5107306;28;20191;-78
2023/11/27 09:23:12;;;;;;;2.03;1.40;;;;;;;6.58;100.00;98697.75;5086994;28;20638;-78
2023/11/27 09:25:39;;;;;;;2.10;1.67;;;;;;;6.68;100.00;98696.47;5084640;28;20288;-79
2023/11/27 09:28:06;;;;;;;3.10;2.27;;;;;;;6.75;100.00;98695.41;5099200;28;20196;-78
2023/11/27 09:30:34;;;;;;;3.50;2.53;;;;;;;6.82;100.00;98688.16;5107114;28;20192;-81
2023/11/27 09:33:04;;;;;;;2.83;2.03;;;;;;;6.80;100.00;98684.91;5096403;28;20716;-79
2023/11/27 09:35:35;;;;;;;1.37;0.90;;;;;;;6.94;100.00;98682.94;5088172;28;20215;-78
2023/11/27 09:38:05;;;;;;;1.13;0.90;;;;;;;7.01;100.00;98678.34;5101131;28;20236;-80
2023/11/27 09:40:39;;;;;;;0.93;0.80;;;;;;;6.98;100.00;98671.63;5071673;28;20216;-80
2023/11/27 09:43:06;;;;;;;1.53;1.13;;;;;;;7.05;100.00;98664.38;5082536;28;20204;-79
2023/11/27 09:45:33;;;;;;;3.63;1.10;;;;;;;7.11;100.00;98659.22;5092244;28;20729;-80
2023/11/27 09:48:24;;;;;;;1.00;0.90;;;;;;;7.19;100.00;98662.38;5088375;28;20192;-80
2023/11/27 09:50:57;;;;;;;0.83;0.80;;;;;;;7.30;100.00;98656.34;5070376;28;20211;-79
2023/11/27 09:53:39;;;;;;;1.27;1.10;;;;;;;7.38;100.00;98650.69;5077892;28;20192;-80
2023/11/27 09:56:10;;;;;;;3.47;2.47;;;;;;;7.41;100.00;98650.28;5085329;28;20265;-79
2023/11/27 09:58:42;;;;;;;1.47;1.10;;;;;;;7.44;100.00;98643.69;5083303;28;20249;-81
2023/11/27 10:01:13;;;;;;;1.07;0.70;;;;;;;7.50;100.00;98648.13;5088566;28;20197;-81
2023/11/27 10:03:42;;;;;;;2.03;0.60;;;;;;;7.51;100.00;98639.88;5095435;28;20222;-80
2023/11/27 10:06:11;;;;;;;0.77;0.63;;;;;;;7.54;100.00;98641.31;5079068;28;20645;-80
2023/11/27 10:09:03;;;;;;;0.83;0.70;;;;;;;7.56;100.00;98633.88;5102535;28;20668;-81
2023/11/27 10:11:34;;;;;;;0.40;0.37;;;;;;;7.61;100.00;98623.34;5071407;28;20290;-79
2023/11/27 10:14:05;;;;;;;0.60;0.40;;;;;;;7.66;100.00;98615.50;5086583;28;20207;-83
2023/11/27 10:16:59;;;;;;;0.40;0.30;;;;;;;7.73;100.00;98602.91;5069045;28;20238;-79
2023/11/27 10:19:32;;;;;;;0.50;0.37;;;;;;;7.78;100.00;98600.38;5095661;28;20184;-79
2023/11/27 10:22:02;;;;;;;0.50;0.30;;;;;;;7.80;100.00;98587.63;5097246;28;20195;-79
2023/11/27 10:24:28;;;;;;;1.17;0.80;;;;;;;7.81;100.00;98589.25;5097579;28;20183;-79
2023/11/27 10:26:56;;;;;;;1.40;1.10;;;;;;;7.85;100.00;98589.59;5090400;28;20219;-80
2023/11/27 10:29:26;;;;;;;0.70;0.60;;;;;;;7.86;100.00;98585.91;5102463;28;20188;-78
2023/11/27 10:31:59;;;;;;;0.63;0.43;;;;;;;7.81;100.00;98580.44;5077550;28;20207;-79
2023/11/27 10:34:33;;;;;;;0.70;0.70;;;;;;;7.91;100.00;98580.72;5091524;28;20188;-82
2023/11/27 10:37:01;;;;;;;0.40;0.40;;;;;;;8.00;100.00;98568.66;5091443;28;20210;-78
2023/11/27 10:39:32;;;;;;;0.70;0.40;;;;;;;8.11;100.00;98561.75;5092248;28;20192;-79
2023/11/27 10:42:03;;;;;;;1.77;0.50;;;;;;;8.18;100.00;98557.09;5089628;28;20735;-77
2023/11/27 10:44:34;;;;;;;1.13;0.50;;;;;;;8.32;100.00;98542.53;5087184;28;20196;-79
2023/11/27 10:47:07;;;;;;;1.40;0.47;;;;;;;8.40;100.00;98534.16;5074206;28;20206;-79
2023/11/27 10:49:39;;;;;;;0.77;0.40;;;;;;;8.53;100.00;98541.97;5091013;28;20228;-80
2023/11/27 10:52:11;;;;;;;0.83;0.30;;;;;;;8.71;100.00;98539.16;5089449;28;20230;-80
2023/11/27 10:54:39;;;;;;;1.10;0.40;;;;;;;8.78;100.00;98531.84;5105865;28;20291;-80
2023/11/27 10:57:08;;;;;;;0.33;0.30;;;;;;;8.83;100.00;98534.63;5087817;28;20216;-79
2023/11/27 10:59:38;;;;;;;1.10;0.50;;;;;;;8.92;100.00;98526.22;5082469;28;20201;-79
2023/11/27 11:02:09;;;;;;;1.10;0.40;;;;;;;9.04;100.00;98516.34;5094657;28;20200;-82
2023/11/27 11:04:56;;;;;;;0.30;0.30;;;;;;;9.17;100.00;98514.22;5085065;28;20213;-79
2023/11/27 11:07:37;;;;;;;1.13;0.30;;;;;;;9.26;100.00;98510.13;5082608;28;20205;-78
2023/11/27 11:10:10;;;;;;;0.30;0.30;;;;;;;9.35;100.00;98501.72;5084870;28;20208;-81
2023/11/27 11:12:41;;;;;;;0.40;0.40;;;;;;;9.36;100.00;98500.66;5093778;28;20245;-80
2023/11/27 11:15:13;;;;;;;0.40;0.40;;;;;;;9.31;100.00;98484.53;5103341;28;20258;-80
2023/11/27 11:18:11;;;;;;;1.40;0.40;;;;;;;9.43;100.00;98490.63;5096447;28;20776;-78
2023/11/27 11:20:49;;;;;;;0.60;0.50;;;;;;;9.48;100.00;98493.41;5102765;28;20270;-78
2023/11/27 11:23:32;;;;;;;1.43;0.83;;;;;;;9.50;100.00;98492.13;5111438;28;20204;-80
2023/11/27 11:26:44;;;;;;;1.53;0.90;;;;;;;9.62;100.00;98479.50;5084115;28;20203;-77
2023/11/27 11:29:32;;;;;;;2.37;2.17;;;;;;;9.77;100.00;98475.44;5084899;28;20204;-79
2023/11/27 11:32:05;;;;;;;5.80;4.20;;;;;;;9.86;100.00;98476.66;5096333;28;20253;-80
2023/11/27 11:34:40;;;;;;;16.47;12.53;;;;;;;9.90;100.00;98459.88;5079250;28;20207;-80
2023/11/27 11:37:14;;;;;;;2.03;1.37;;;;;;;9.85;100.00;98459.00;5086040;28;20228;-79
2023/11/27 11:39:42;;;;;;;1.87;1.00;;;;;;;9.79;100.00;98447.44;5091919;28;20276;-79
2023/11/27 11:42:20;;;;;;;1.40;1.30;;;;;;;9.70;100.00;98447.00;5083150;28;20228;-80
2023/11/27 11:45:25;;;;;;;4.07;2.80;;;;;;;9.58;100.00;98442.78;5094349;28;20197;-80
2023/11/27 11:48:00;;;;;;;2.13;1.47;;;;;;;9.50;100.00;98435.97;5088432;28;20676;-77